Time;durP1;ratioP1;P1;durP2;ratioP2;P2;SDS_P1;SDS_P2;PMS_P1;PMS_P2;Temp;Humidity;BMP_temperature;BMP_pressure;BME280_temperature;BME280_humidity;BME280_pressure;Samples;Min_cycle;Max_cycle;Signal;HPM_P1;HPM_P2
2021/07/06 00:01:33;;;;;;;0.90;0.70;;;25.20;50.60;;;;;;5008750;28;20031;-62
2021/07/06 00:03:59;;;;;;;1.60;0.90;;;25.20;50.60;;;;;;5009607;28;20156;-62
2021/07/06 00:06:24;;;;;;;1.50;1.10;;;25.20;50.70;;;;;;5001693;28;20537;-61
2021/07/06 00:08:50;;;;;;;1.23;0.90;;;25.20;50.70;;;;;;5008543;28;20030;-61
2021/07/06 00:11:17;;;;;;;0.93;0.82;;;25.20;50.80;;;;;;5007461;28;20353;-60
2021/07/06 00:13:43;;;;;;;1.00;0.70;;;25.10;50.80;;;;;;5014416;28;20030;-61
2021/07/06 00:16:09;;;;;;;1.30;1.05;;;25.20;50.90;;;;;;5003918;28;20018;-61
2021/07/06 00:18:35;;;;;;;1.20;0.90;;;25.20;50.90;;;;;;5007822;28;20033;-62
2021/07/06 00:21:01;;;;;;;1.15;0.80;;;25.20;51.00;;;;;;5015035;28;20275;-62
2021/07/06 00:23:28;;;;;;;0.82;0.80;;;25.20;51.10;;;;;;5006497;28;20454;-62
2021/07/06 00:25:55;;;;;;;0.85;0.80;;;25.20;51.20;;;;;;5004340;28;20113;-61
2021/07/06 00:28:20;;;;;;;0.82;0.77;;;25.20;51.30;;;;;;5011750;28;20334;-60
2021/07/06 00:30:46;;;;;;;1.08;0.98;;;25.20;51.30;;;;;;5013184;28;20036;-61
2021/07/06 00:33:12;;;;;;;1.00;0.88;;;25.10;51.30;;;;;;5009589;28;20034;-63
2021/07/06 00:35:38;;;;;;;1.08;0.80;;;25.20;51.40;;;;;;5012401;28;20045;-62
2021/07/06 00:38:03;;;;;;;0.98;0.73;;;25.20;51.50;;;;;;5000739;28;20033;-60
2021/07/06 00:40:29;;;;;;;1.02;0.70;;;25.10;51.50;;;;;;5000078;28;20058;-61
2021/07/06 00:43:01;;;;;;;0.88;0.70;;;25.20;51.60;;;;;;5007306;28;20028;-61
2021/07/06 00:45:28;;;;;;;0.63;0.60;;;25.10;51.50;;;;;;5007501;28;20072;-60
2021/07/06 00:47:54;;;;;;;0.70;0.70;;;25.20;51.70;;;;;;5004392;28;20034;-61
2021/07/06 00:50:22;;;;;;;0.95;0.43;;;25.10;51.60;;;;;;5000753;28;20026;-64
2021/07/06 00:52:49;;;;;;;0.93;0.55;;;25.20;51.80;;;;;;5005168;28;20117;-61
2021/07/06 00:55:15;;;;;;;1.08;0.60;;;25.20;51.80;;;;;;5000996;28;20044;-63
2021/07/06 00:57:42;;;;;;;0.75;0.60;;;25.10;51.80;;;;;;5001139;28;20034;-61
2021/07/06 01:00:12;;;;;;;0.50;0.50;;;25.20;51.90;;;;;;5012000;28;20042;-61
2021/07/06 01:02:38;;;;;;;0.70;0.60;;;25.20;51.90;;;;;;5008192;28;20049;-62
2021/07/06 01:05:07;;;;;;;0.47;0.47;;;25.10;51.90;;;;;;5007802;28;20076;-61
2021/07/06 01:07:33;;;;;;;0.40;0.40;;;25.20;52.00;;;;;;4999235;28;20042;-62
2021/07/06 01:10:00;;;;;;;0.60;0.50;;;25.10;52.00;;;;;;5002530;28;20022;-62
2021/07/06 01:12:25;;;;;;;0.60;0.60;;;25.10;52.10;;;;;;5003511;28;20026;-60
2021/07/06 01:14:51;;;;;;;0.47;0.40;;;25.20;52.20;;;;;;5007735;28;20071;-61
2021/07/06 01:17:26;;;;;;;0.70;0.43;;;25.10;52.10;;;;;;5011763;28;20041;-62
2021/07/06 01:19:52;;;;;;;0.82;0.60;;;25.20;52.30;;;;;;5009324;28;20041;-61
2021/07/06 01:22:31;;;;;;;0.68;0.55;;;25.10;52.30;;;;;;5002860;28;20453;-61
2021/07/06 01:25:03;;;;;;;1.70;0.73;;;25.10;52.40;;;;;;5009862;28;20111;-61
2021/07/06 01:27:29;;;;;;;0.40;0.40;;;25.10;52.50;;;;;;5008931;28;20026;-60
2021/07/06 01:29:56;;;;;;;0.50;0.50;;;25.10;52.50;;;;;;5014011;28;20041;-62
2021/07/06 01:32:22;;;;;;;0.60;0.50;;;25.10;52.60;;;;;;5007051;28;20030;-61
2021/07/06 01:34:48;;;;;;;0.55;0.40;;;25.10;52.60;;;;;;5002517;28;20181;-61
2021/07/06 01:37:18;;;;;;;0.60;0.35;;;25.10;52.70;;;;;;5005972;28;20105;-60
2021/07/06 01:39:45;;;;;;;0.40;0.30;;;25.10;52.70;;;;;;5009722;28;20045;-61
2021/07/06 01:42:17;;;;;;;0.40;0.40;;;25.10;52.70;;;;;;5011610;28;20037;-61
2021/07/06 01:44:43;;;;;;;1.00;0.57;;;25.10;52.80;;;;;;5008626;28;20579;-62
2021/07/06 01:47:08;;;;;;;0.40;0.30;;;25.10;52.80;;;;;;5009976;28;20022;-61
2021/07/06 01:49:35;;;;;;;1.17;0.60;;;25.10;52.80;;;;;;5008406;28;20031;-60
2021/07/06 01:52:01;;;;;;;1.40;0.52;;;25.10;52.80;;;;;;5000904;28;20116;-61
2021/07/06 01:54:26;;;;;;;0.40;0.40;;;25.10;52.80;;;;;;5008476;28;20169;-60
2021/07/06 01:56:52;;;;;;;0.50;0.30;;;25.10;52.80;;;;;;5000217;28;20057;-61
2021/07/06 01:59:18;;;;;;;1.40;0.50;;;25.10;52.90;;;;;;5000808;28;20423;-61
2021/07/06 02:01:44;;;;;;;0.35;0.20;;;25.10;52.80;;;;;;4999515;28;20034;-61
2021/07/06 02:04:12;;;;;;;0.65;0.43;;;25.10;52.90;;;;;;5013801;28;20034;-62
2021/07/06 02:06:38;;;;;;;0.40;0.40;;;25.10;52.90;;;;;;5002910;28;20044;-61
2021/07/06 02:09:04;;;;;;;0.90;0.25;;;25.10;52.90;;;;;;5003986;28;20030;-62
2021/07/06 02:11:30;;;;;;;1.00;0.40;;;25.10;52.90;;;;;;4996598;28;20354;-61
2021/07/06 02:13:59;;;;;;;0.20;0.20;;;25.10;52.90;;;;;;5000634;28;20026;-61
2021/07/06 02:16:25;;;;;;;0.20;0.20;;;25.10;52.90;;;;;;5003866;28;20030;-61
2021/07/06 02:18:51;;;;;;;1.05;0.40;;;25.10;52.90;;;;;;5002631;28;20062;-61
2021/07/06 02:21:17;;;;;;;0.28;0.20;;;25.10;52.90;;;;;;5007705;28;20453;-63
2021/07/06 02:23:45;;;;;;;0.20;0.20;;;25.10;52.90;;;;;;5007876;28;20029;-61
2021/07/06 02:26:12;;;;;;;0.35;0.30;;;25.10;52.90;;;;;;5005342;28;20068;-60
2021/07/06 02:28:38;;;;;;;0.30;0.30;;;25.10;53.00;;;;;;5003284;28;20022;-61
2021/07/06 02:31:05;;;;;;;0.28;0.28;;;25.10;53.00;;;;;;5011114;28;20820;-61
2021/07/06 02:33:35;;;;;;;0.65;0.35;;;25.10;53.00;;;;;;5013115;28;20144;-61
2021/07/06 02:36:04;;;;;;;0.80;0.30;;;25.00;53.00;;;;;;5004709;28;20038;-62
2021/07/06 02:38:30;;;;;;;0.30;0.20;;;25.10;53.10;;;;;;5007275;28;20064;-59
2021/07/06 02:40:56;;;;;;;0.30;0.30;;;25.00;53.10;;;;;;5003027;28;20050;-62
2021/07/06 02:43:22;;;;;;;0.57;0.25;;;25.00;53.10;;;;;;4999414;28;20034;-62
2021/07/06 02:45:48;;;;;;;0.30;0.30;;;25.00;53.10;;;;;;5005221;28;20470;-62
2021/07/06 02:48:14;;;;;;;0.20;0.20;;;25.00;53.20;;;;;;5011325;28;20022;-60
2021/07/06 02:50:41;;;;;;;0.30;0.30;;;25.00;53.30;;;;;;5003365;28;20033;-60
2021/07/06 02:53:10;;;;;;;0.43;0.30;;;25.00;53.30;;;;;;5003244;28;20030;-61
2021/07/06 02:55:37;;;;;;;1.35;0.40;;;25.00;53.30;;;;;;5009148;28;20050;-61
2021/07/06 02:58:03;;;;;;;0.20;0.20;;;25.00;53.40;;;;;;5002151;28;20030;-61
2021/07/06 03:00:31;;;;;;;0.68;0.30;;;25.00;53.40;;;;;;5005746;28;20142;-61
2021/07/06 03:03:00;;;;;;;0.30;0.30;;;25.00;53.40;;;;;;5010061;28;20034;-60
2021/07/06 03:05:28;;;;;;;0.17;0.13;;;25.00;53.40;;;;;;4995838;28;20109;-61
2021/07/06 03:07:55;;;;;;;0.30;0.30;;;25.00;53.40;;;;;;5012060;28;20126;-61
2021/07/06 03:10:26;;;;;;;0.20;0.20;;;24.90;53.40;;;;;;5012389;28;20436;-62
2021/07/06 03:12:53;;;;;;;0.32;0.20;;;25.00;53.50;;;;;;5007425;28;20065;-60
2021/07/06 03:15:21;;;;;;;0.73;0.22;;;24.90;53.50;;;;;;5000589;28;20041;-61
2021/07/06 03:17:48;;;;;;;0.40;0.30;;;25.00;53.50;;;;;;5001232;28;20042;-61
2021/07/06 03:20:15;;;;;;;0.20;0.20;;;25.00;53.50;;;;;;4997698;28;20053;-62
2021/07/06 03:22:42;;;;;;;0.70;0.40;;;24.90;53.50;;;;;;5006369;28;20034;-61
2021/07/06 03:25:10;;;;;;;0.30;0.30;;;24.90;53.50;;;;;;4999519;28;20053;-62
2021/07/06 03:27:39;;;;;;;1.85;0.40;;;24.90;53.50;;;;;;5004229;28;20060;-62
2021/07/06 03:30:13;;;;;;;0.50;0.50;;;24.90;53.60;;;;;;5011030;28;20022;-61
2021/07/06 03:32:39;;;;;;;0.40;0.30;;;25.00;53.60;;;;;;4999170;28;20046;-62
2021/07/06 03:35:07;;;;;;;0.55;0.30;;;24.90;53.60;;;;;;5011281;28;20330;-62
2021/07/06 03:37:33;;;;;;;0.32;0.30;;;24.90;53.60;;;;;;5000793;28;20030;-64
2021/07/06 03:39:59;;;;;;;0.95;0.30;;;24.90;53.70;;;;;;5009121;28;20104;-62
2021/07/06 03:42:25;;;;;;;0.73;0.30;;;24.90;53.70;;;;;;4999035;28;20056;-61
2021/07/06 03:44:51;;;;;;;0.52;0.30;;;24.90;53.70;;;;;;5009014;28;20025;-60
2021/07/06 03:47:17;;;;;;;0.40;0.20;;;24.90;53.80;;;;;;5010459;28;20030;-61
2021/07/06 03:49:43;;;;;;;0.28;0.28;;;24.90;53.80;;;;;;5009677;28;20125;-60
2021/07/06 03:52:09;;;;;;;0.17;0.17;;;24.90;53.80;;;;;;5001475;28;20442;-61
2021/07/06 03:54:34;;;;;;;1.60;0.30;;;24.90;53.80;;;;;;5011109;28;20373;-62
2021/07/06 03:57:00;;;;;;;0.50;0.40;;;24.90;53.80;;;;;;5005619;28;20109;-61
2021/07/06 03:59:26;;;;;;;0.20;0.20;;;24.90;53.80;;;;;;5008551;28;20137;-62
2021/07/06 04:01:52;;;;;;;0.38;0.30;;;24.90;53.80;;;;;;5001742;28;20044;-62
2021/07/06 04:04:19;;;;;;;0.30;0.22;;;24.90;53.80;;;;;;5011921;28;20360;-61
2021/07/06 04:06:45;;;;;;;0.50;0.40;;;24.90;53.70;;;;;;4993432;28;20031;-61
2021/07/06 04:09:11;;;;;;;1.48;0.25;;;24.90;53.70;;;;;;4999278;28;20323;-61
2021/07/06 04:11:37;;;;;;;0.43;0.30;;;24.90;53.70;;;;;;4997332;28;20099;-62
2021/07/06 04:14:04;;;;;;;0.25;0.20;;;24.90;53.70;;;;;;5004122;28;20031;-61
2021/07/06 04:16:30;;;;;;;0.93;0.40;;;24.90;53.70;;;;;;5001818;28;20113;-62
2021/07/06 04:18:56;;;;;;;0.20;0.20;;;24.90;53.70;;;;;;5011912;28;20758;-61
2021/07/06 04:21:22;;;;;;;0.30;0.20;;;24.90;53.70;;;;;;4999231;28;20370;-59
2021/07/06 04:23:47;;;;;;;0.20;0.20;;;24.90;53.70;;;;;;4999780;28;20026;-61
2021/07/06 04:26:13;;;;;;;0.25;0.25;;;24.90;53.70;;;;;;5011650;28;20437;-61
2021/07/06 04:28:39;;;;;;;0.47;0.20;;;24.90;53.70;;;;;;5010735;28;20033;-61
2021/07/06 04:31:05;;;;;;;0.35;0.10;;;24.90;53.70;;;;;;5009430;28;20034;-62
2021/07/06 04:33:31;;;;;;;0.47;0.20;;;24.90;53.70;;;;;;5004284;28;20022;-61
2021/07/06 04:35:57;;;;;;;0.85;0.32;;;24.90;53.80;;;;;;5000915;28;20053;-62
2021/07/06 04:38:23;;;;;;;0.35;0.20;;;24.90;53.80;;;;;;4994004;28;20022;-61
2021/07/06 04:40:49;;;;;;;0.57;0.35;;;24.90;53.80;;;;;;5009001;28;20038;-58
2021/07/06 04:43:15;;;;;;;0.75;0.30;;;24.90;53.80;;;;;;5005066;28;20034;-61
2021/07/06 04:45:41;;;;;;;0.25;0.20;;;24.90;53.80;;;;;;5002087;28;20459;-61
2021/07/06 04:48:07;;;;;;;0.30;0.20;;;24.90;53.80;;;;;;5007365;28;20025;-61
2021/07/06 04:50:36;;;;;;;1.08;0.47;;;24.90;53.80;;;;;;5005352;28;20088;-61
2021/07/06 04:53:03;;;;;;;0.55;0.35;;;24.90;53.90;;;;;;4998164;28;20077;-61
2021/07/06 04:55:29;;;;;;;1.13;0.20;;;24.90;53.90;;;;;;5000378;28;20046;-61
2021/07/06 04:57:55;;;;;;;0.38;0.38;;;24.90;53.90;;;;;;5010293;28;20033;-62
2021/07/06 05:00:21;;;;;;;0.30;0.30;;;24.90;53.90;;;;;;5006932;28;20038;-60
2021/07/06 05:02:47;;;;;;;0.63;0.40;;;24.90;53.90;;;;;;5004606;28;20068;-63
2021/07/06 05:05:14;;;;;;;0.30;0.30;;;24.90;53.90;;;;;;5013545;28;20048;-61
2021/07/06 05:07:41;;;;;;;0.30;0.30;;;24.90;53.90;;;;;;5000276;28;20496;-64
2021/07/06 05:10:11;;;;;;;0.55;0.30;;;24.90;54.00;;;;;;5003803;28;20052;-61
2021/07/06 05:12:38;;;;;;;0.40;0.30;;;24.90;53.90;;;;;;5011968;28;20068;-59
2021/07/06 05:15:05;;;;;;;2.83;0.40;;;24.90;53.90;;;;;;5007548;28;20045;-60
2021/07/06 05:17:31;;;;;;;0.40;0.40;;;24.90;54.00;;;;;;5011553;28;20021;-61
2021/07/06 05:19:57;;;;;;;0.47;0.20;;;24.90;53.90;;;;;;5006021;28;20042;-60
2021/07/06 05:22:23;;;;;;;0.40;0.40;;;24.90;53.90;;;;;;5008224;28;20458;-63
2021/07/06 05:24:50;;;;;;;0.63;0.35;;;24.90;53.90;;;;;;5013041;28;20093;-62
2021/07/06 05:27:17;;;;;;;0.68;0.35;;;24.90;53.80;;;;;;5004554;28;20093;-62
2021/07/06 05:29:43;;;;;;;0.30;0.20;;;24.90;53.80;;;;;;5009707;28;20038;-62
2021/07/06 05:32:09;;;;;;;0.60;0.40;;;24.90;53.80;;;;;;4999900;28;20354;-62
2021/07/06 05:34:35;;;;;;;0.25;0.20;;;24.90;53.80;;;;;;5006541;28;20030;-62
2021/07/06 05:37:01;;;;;;;0.32;0.32;;;24.90;53.80;;;;;;5005918;28;20014;-61
2021/07/06 05:39:27;;;;;;;0.70;0.28;;;24.90;53.80;;;;;;5000962;28;20034;-62
2021/07/06 05:41:53;;;;;;;0.90;0.20;;;25.00;53.80;;;;;;5011135;28;20076;-62
2021/07/06 05:44:19;;;;;;;0.32;0.20;;;25.00;53.80;;;;;;5009630;28;20026;-58
2021/07/06 05:46:45;;;;;;;0.50;0.28;;;25.00;53.80;;;;;;5008877;28;20088;-59
2021/07/06 05:49:11;;;;;;;0.65;0.30;;;25.00;53.80;;;;;;5005621;28;20026;-62
2021/07/06 05:51:37;;;;;;;0.70;0.30;;;25.00;53.80;;;;;;4998766;28;20445;-62
2021/07/06 05:54:04;;;;;;;1.17;0.43;;;25.00;53.70;;;;;;5006752;28;20097;-59
2021/07/06 05:56:32;;;;;;;0.60;0.40;;;25.00;53.70;;;;;;4999953;28;20036;-61
2021/07/06 05:58:59;;;;;;;0.40;0.40;;;25.00;53.70;;;;;;5003012;28;20042;-62
2021/07/06 06:01:24;;;;;;;1.45;0.40;;;25.00;53.70;;;;;;5007631;28;20037;-59
2021/07/06 06:03:50;;;;;;;0.63;0.40;;;25.00;53.70;;;;;;5008188;28;20030;-60
2021/07/06 06:06:16;;;;;;;0.50;0.43;;;25.00;53.70;;;;;;5000330;28;20354;-62
2021/07/06 06:08:42;;;;;;;0.28;0.28;;;25.00;53.80;;;;;;5004168;28;20441;-61
2021/07/06 06:11:09;;;;;;;0.95;0.30;;;25.00;53.80;;;;;;5020337;28;20044;-63
2021/07/06 06:13:35;;;;;;;0.60;0.40;;;25.00;53.80;;;;;;5008911;28;20040;-62
2021/07/06 06:16:01;;;;;;;0.50;0.30;;;25.00;53.80;;;;;;5004630;28;20105;-62
2021/07/06 06:18:27;;;;;;;0.45;0.40;;;25.00;53.90;;;;;;5005379;28;20018;-61
2021/07/06 06:20:53;;;;;;;0.30;0.30;;;25.00;53.80;;;;;;5008974;28;20452;-60
2021/07/06 06:23:19;;;;;;;0.98;0.50;;;25.00;53.80;;;;;;5009278;28;20045;-61
2021/07/06 06:25:45;;;;;;;0.43;0.43;;;25.00;53.80;;;;;;5020180;28;20058;-60
2021/07/06 06:28:11;;;;;;;0.50;0.40;;;25.00;53.80;;;;;;4998396;28;20032;-58
2021/07/06 06:30:37;;;;;;;0.70;0.50;;;25.00;53.80;;;;;;5001766;28;20022;-63
2021/07/06 06:33:02;;;;;;;0.47;0.40;;;25.00;53.80;;;;;;5013296;28;20026;-61
2021/07/06 06:35:28;;;;;;;0.75;0.45;;;25.00;53.90;;;;;;5012220;28;20096;-61
2021/07/06 06:37:54;;;;;;;1.60;0.73;;;25.00;53.90;;;;;;5008018;28;20030;-61
2021/07/06 06:40:20;;;;;;;0.73;0.40;;;25.00;53.90;;;;;;5001467;28;20069;-62
2021/07/06 06:42:46;;;;;;;0.88;0.73;;;25.00;53.90;;;;;;5006701;28;20361;-62
2021/07/06 06:45:13;;;;;;;2.33;0.60;;;25.00;54.00;;;;;;5022149;28;20101;-62
2021/07/06 06:47:41;;;;;;;1.10;0.70;;;25.00;54.00;;;;;;5005662;28;20026;-59
2021/07/06 06:50:09;;;;;;;1.38;0.70;;;25.10;54.20;;;;;;5007934;28;20117;-61
2021/07/06 06:52:35;;;;;;;1.45;0.70;;;25.10;54.20;;;;;;5008936;28;20315;-62
2021/07/06 06:55:02;;;;;;;1.65;0.75;;;25.10;54.20;;;;;;5002453;28;20039;-61
2021/07/06 06:57:28;;;;;;;1.95;0.73;;;25.10;54.10;;;;;;5000606;28;20030;-61
2021/07/06 06:59:54;;;;;;;0.95;0.57;;;25.10;54.10;;;;;;5028743;28;20069;-60
2021/07/06 07:02:20;;;;;;;1.00;0.70;;;25.20;54.10;;;;;;5010240;28;20022;-61
2021/07/06 07:04:47;;;;;;;1.35;0.73;;;25.20;54.00;;;;;;5003968;28;21664;-62
2021/07/06 07:07:14;;;;;;;1.08;0.60;;;25.20;54.00;;;;;;5006583;28;20113;-60
2021/07/06 07:09:40;;;;;;;3.90;0.80;;;25.20;54.00;;;;;;5003068;28;20021;-60
2021/07/06 07:12:07;;;;;;;1.90;0.90;;;25.30;54.00;;;;;;5013762;28;20079;-62
2021/07/06 07:14:34;;;;;;;1.67;1.00;;;25.30;53.90;;;;;;5019246;28;20033;-61
2021/07/06 07:17:00;;;;;;;2.67;1.08;;;25.30;53.90;;;;;;5032238;28;20420;-61
2021/07/06 07:19:25;;;;;;;2.17;1.30;;;25.30;53.90;;;;;;5033830;28;20068;-62
2021/07/06 07:21:51;;;;;;;2.05;0.90;;;25.30;53.80;;;;;;5033254;28;20033;-61
2021/07/06 07:24:17;;;;;;;2.65;1.08;;;25.40;53.90;;;;;;5006448;28;20483;-60
2021/07/06 07:26:43;;;;;;;2.22;1.00;;;25.40;53.80;;;;;;5004293;28;20041;-62
2021/07/06 07:29:09;;;;;;;2.35;0.82;;;25.40;53.80;;;;;;5005216;28;20030;-61
2021/07/06 07:31:35;;;;;;;1.80;1.13;;;25.40;53.70;;;;;;5002931;28;20439;-63
2021/07/06 07:34:01;;;;;;;2.28;1.17;;;25.40;53.80;;;;;;4984686;28;20038;-61
2021/07/06 07:36:27;;;;;;;1.65;0.90;;;25.40;53.70;;;;;;5007636;28;20397;-63
2021/07/06 07:38:54;;;;;;;1.67;1.17;;;25.50;53.70;;;;;;5012298;28;20033;-62
2021/07/06 07:41:21;;;;;;;2.67;0.90;;;25.50;53.70;;;;;;5004961;28;20034;-62
2021/07/06 07:43:49;;;;;;;2.08;0.88;;;25.50;53.60;;;;;;5004153;28;20330;-62
2021/07/06 07:46:15;;;;;;;1.90;0.90;;;25.50;53.60;;;;;;5001561;28;20327;-62
2021/07/06 07:48:41;;;;;;;1.55;0.90;;;25.50;53.60;;;;;;5007502;28;20907;-61
2021/07/06 07:51:07;;;;;;;0.82;0.63;;;25.50;53.50;;;;;;5004082;28;20080;-60
2021/07/06 07:53:33;;;;;;;1.98;0.90;;;25.60;53.60;;;;;;4996801;28;20056;-59
2021/07/06 07:55:59;;;;;;;2.28;1.10;;;25.60;53.60;;;;;;5000599;28;20022;-62
2021/07/06 07:58:24;;;;;;;1.92;0.93;;;25.60;53.50;;;;;;5003955;28;20037;-59
2021/07/06 08:00:50;;;;;;;2.15;1.00;;;25.60;53.40;;;;;;5011501;28;20046;-59
2021/07/06 08:03:16;;;;;;;2.03;0.90;;;25.60;53.30;;;;;;5002759;28;20026;-60
2021/07/06 08:05:42;;;;;;;1.83;0.73;;;25.60;53.20;;;;;;5001585;28;20049;-60
2021/07/06 08:08:07;;;;;;;1.42;0.80;;;25.60;53.10;;;;;;5025685;28;20033;-60
2021/07/06 08:10:33;;;;;;;0.95;0.60;;;25.60;53.00;;;;;;5032211;28;20029;-61
2021/07/06 08:12:59;;;;;;;2.45;0.50;;;25.60;52.90;;;;;;5024980;28;20056;-61
2021/07/06 08:15:25;;;;;;;2.05;0.65;;;25.60;52.70;;;;;;5019157;28;20041;-58
2021/07/06 08:17:50;;;;;;;1.20;0.50;;;25.60;52.60;;;;;;5025638;28;20411;-60
2021/07/06 08:20:16;;;;;;;1.25;0.60;;;25.60;52.50;;;;;;5033397;28;20119;-58
2021/07/06 08:22:43;;;;;;;0.63;0.50;;;25.60;52.40;;;;;;5032881;28;20037;-60
2021/07/06 08:25:09;;;;;;;1.92;0.63;;;25.60;52.30;;;;;;5032699;28;20092;-62
2021/07/06 08:27:35;;;;;;;0.50;0.50;;;25.70;52.30;;;;;;5025932;28;20395;-59
2021/07/06 08:30:01;;;;;;;0.57;0.47;;;25.70;52.20;;;;;;5017831;28;20112;-63
2021/07/06 08:32:27;;;;;;;0.93;0.55;;;25.70;52.20;;;;;;5009801;28;20092;-62
2021/07/06 08:34:53;;;;;;;0.40;0.40;;;25.70;52.10;;;;;;5016772;28;20045;-58
2021/07/06 08:37:18;;;;;;;0.52;0.30;;;25.70;52.00;;;;;;5035783;28;20057;-62
2021/07/06 08:39:44;;;;;;;0.60;0.50;;;25.70;51.90;;;;;;5036428;28;20046;-58
2021/07/06 08:42:10;;;;;;;0.30;0.30;;;25.70;51.80;;;;;;5006818;28;20027;-62
2021/07/06 08:44:37;;;;;;;0.40;0.40;;;25.70;51.80;;;;;;5004571;28;20034;-62
2021/07/06 08:47:04;;;;;;;1.05;0.57;;;25.70;51.70;;;;;;5016972;28;20108;-61
2021/07/06 08:49:31;;;;;;;1.05;0.30;;;25.70;51.60;;;;;;5030962;28;20029;-58
2021/07/06 08:51:59;;;;;;;1.20;0.50;;;25.70;51.50;;;;;;5021355;28;20113;-61
2021/07/06 08:54:24;;;;;;;0.95;0.63;;;25.70;51.40;;;;;;5026072;28;20056;-61
2021/07/06 08:56:50;;;;;;;0.40;0.30;;;25.70;51.30;;;;;;5037345;28;20033;-63
2021/07/06 08:59:16;;;;;;;0.63;0.30;;;25.80;51.30;;;;;;5035868;28;20041;-59
2021/07/06 09:01:42;;;;;;;0.60;0.43;;;25.70;51.20;;;;;;5037610;28;20060;-61
2021/07/06 09:04:09;;;;;;;0.40;0.30;;;25.70;51.10;;;;;;5023160;28;20037;-61
2021/07/06 09:06:57;;;;;;;0.52;0.20;;;25.80;51.10;;;;;;5036873;28;20060;-60
2021/07/06 09:09:26;;;;;;;0.30;0.30;;;25.80;50.90;;;;;;5031511;28;20069;-60
2021/07/06 09:11:54;;;;;;;0.40;0.40;;;25.80;50.90;;;;;;5037109;28;20461;-61
2021/07/06 09:14:27;;;;;;;0.40;0.25;;;25.80;50.80;;;;;;5029124;28;20029;-60
2021/07/06 09:17:15;;;;;;;0.82;0.40;;;25.80;50.70;;;;;;5037067;28;20098;-61
2021/07/06 09:19:45;;;;;;;0.57;0.40;;;25.80;50.60;;;;;;5023938;28;20042;-59
2021/07/06 09:22:14;;;;;;;1.10;0.20;;;25.80;50.60;;;;;;5016930;28;20026;-61
2021/07/06 09:24:45;;;;;;;0.38;0.30;;;25.80;50.60;;;;;;5022266;28;20041;-61
2021/07/06 09:27:26;;;;;;;0.47;0.20;;;25.80;50.50;;;;;;5035438;28;20032;-61
2021/07/06 09:30:22;;;;;;;0.85;0.30;;;25.80;50.40;;;;;;5036354;28;20389;-62
2021/07/06 09:32:51;;;;;;;0.50;0.28;;;25.80;50.30;;;;;;4997454;28;20034;-63
2021/07/06 09:35:24;;;;;;;0.68;0.38;;;25.80;50.30;;;;;;5022708;28;20414;-61
2021/07/06 09:38:02;;;;;;;0.30;0.30;;;25.80;50.20;;;;;;5036561;28;20037;-62
2021/07/06 09:40:39;;;;;;;0.30;0.30;;;25.80;50.20;;;;;;5030734;28;20460;-58
2021/07/06 09:43:28;;;;;;;0.45;0.35;;;25.80;50.10;;;;;;5036455;28;20464;-61
2021/07/06 09:46:08;;;;;;;0.50;0.30;;;25.90;50.10;;;;;;5021938;28;20048;-61
2021/07/06 09:48:38;;;;;;;0.73;0.30;;;25.80;50.00;;;;;;5016256;28;20345;-61
2021/07/06 09:51:18;;;;;;;0.43;0.20;;;25.80;49.90;;;;;;5036543;28;20041;-61
2021/07/06 09:53:46;;;;;;;0.63;0.35;;;25.90;49.90;;;;;;5034557;28;20356;-57
2021/07/06 09:56:17;;;;;;;0.63;0.30;;;25.90;49.90;;;;;;5030431;28;20396;-60
2021/07/06 09:59:05;;;;;;;0.20;0.20;;;25.90;49.80;;;;;;5013373;28;20029;-60
2021/07/06 10:01:31;;;;;;;0.50;0.40;;;25.90;49.70;;;;;;5007252;28;20052;-62
2021/07/06 10:03:58;;;;;;;0.20;0.20;;;25.90;49.70;;;;;;5015376;28;20018;-61
2021/07/06 10:06:28;;;;;;;0.65;0.40;;;25.90;49.70;;;;;;5015964;28;20025;-62
2021/07/06 10:08:56;;;;;;;0.40;0.38;;;25.90;49.60;;;;;;5006353;28;20032;-61
2021/07/06 10:11:23;;;;;;;0.55;0.40;;;25.90;49.50;;;;;;5009604;28;20088;-59
2021/07/06 10:13:49;;;;;;;0.70;0.30;;;25.90;49.40;;;;;;5010351;28;20033;-59
2021/07/06 10:16:16;;;;;;;0.50;0.40;;;25.90;49.30;;;;;;5020258;28;20087;-61
2021/07/06 10:18:42;;;;;;;0.50;0.50;;;25.90;49.30;;;;;;5023577;28;20493;-63
2021/07/06 10:21:08;;;;;;;2.25;0.30;;;26.00;49.30;;;;;;5015309;28;20446;-62
2021/07/06 10:23:35;;;;;;;0.65;0.40;;;25.90;49.20;;;;;;5011054;28;20022;-63
2021/07/06 10:26:03;;;;;;;0.25;0.25;;;25.90;49.00;;;;;;4998152;28;20066;-62
2021/07/06 10:28:30;;;;;;;0.63;0.20;;;25.90;49.00;;;;;;5007880;28;20069;-62
2021/07/06 10:31:14;;;;;;;0.73;0.40;;;25.90;49.00;;;;;;5005728;28;20069;-59
2021/07/06 10:33:45;;;;;;;0.50;0.30;;;25.90;48.90;;;;;;5001937;28;20516;-58
2021/07/06 10:36:12;;;;;;;1.77;0.45;;;26.00;49.50;;;;;;4999498;28;20038;-60
2021/07/06 10:38:43;;;;;;;0.60;0.35;;;25.90;48.80;;;;;;5012709;28;20026;-62
2021/07/06 10:41:32;;;;;;;0.55;0.30;;;26.00;48.70;;;;;;5007655;28;20033;-63
2021/07/06 10:44:02;;;;;;;1.52;0.30;;;26.00;48.60;;;;;;5009798;28;20107;-64
2021/07/06 10:46:41;;;;;;;0.30;0.30;;;26.00;48.60;;;;;;5018894;28;20095;-61
2021/07/06 10:49:28;;;;;;;0.60;0.35;;;26.00;48.70;;;;;;5002129;28;20048;-58
2021/07/06 10:51:55;;;;;;;1.75;0.32;;;26.10;48.80;;;;;;5009397;28;20437;-62
2021/07/06 10:54:26;;;;;;;2.85;0.47;;;26.10;49.00;;;;;;5001414;28;20018;-59
2021/07/06 10:56:57;;;;;;;1.23;0.40;;;26.10;49.10;;;;;;5004760;28;20030;-63
2021/07/06 10:59:31;;;;;;;0.30;0.30;;;26.10;49.70;;;;;;4998423;28;20071;-62
2021/07/06 11:02:11;;;;;;;1.75;0.57;;;26.20;49.20;;;;;;5009877;28;20026;-61
2021/07/06 11:04:39;;;;;;;1.15;0.30;;;26.20;49.20;;;;;;5024166;28;20095;-61
2021/07/06 11:07:13;;;;;;;1.85;0.50;;;26.20;49.10;;;;;;5008033;28;20033;-60
2021/07/06 11:09:58;;;;;;;1.13;0.40;;;26.20;49.00;;;;;;5006410;28;20100;-60
2021/07/06 11:12:46;;;;;;;0.85;0.43;;;26.30;49.10;;;;;;5014793;28;20057;-61
2021/07/06 11:15:12;;;;;;;0.80;0.40;;;26.30;48.80;;;;;;5007398;28;20030;-59
2021/07/06 11:17:45;;;;;;;0.73;0.30;;;26.30;48.70;;;;;;5001560;28;20450;-58
2021/07/06 11:20:33;;;;;;;0.45;0.35;;;26.30;48.60;;;;;;5019678;28;20064;-59
2021/07/06 11:23:00;;;;;;;1.13;0.43;;;26.30;48.40;;;;;;5010026;28;20072;-59
2021/07/06 11:25:36;;;;;;;0.65;0.40;;;26.30;48.20;;;;;;5009128;28;20057;-61
2021/07/06 11:28:14;;;;;;;1.98;0.40;;;26.40;48.20;;;;;;5011109;28;20499;-59
2021/07/06 11:30:49;;;;;;;1.60;0.50;;;26.40;47.90;;;;;;5014266;28;20049;-62
2021/07/06 11:33:33;;;;;;;0.77;0.35;;;26.40;47.80;;;;;;4993944;28;20034;-62
2021/07/06 11:36:01;;;;;;;2.58;0.32;;;26.40;47.50;;;;;;4997124;28;20030;-61
2021/07/06 11:38:40;;;;;;;1.35;0.40;;;26.40;47.40;;;;;;5014868;28;20056;-62
2021/07/06 11:41:07;;;;;;;2.63;0.68;;;26.40;47.30;;;;;;5009927;28;20049;-64
2021/07/06 11:43:34;;;;;;;4.63;0.60;;;26.40;47.10;;;;;;5010552;28;20048;-61
2021/07/06 11:46:09;;;;;;;2.28;0.50;;;26.40;46.90;;;;;;4997009;28;20034;-62
2021/07/06 11:48:36;;;;;;;0.57;0.45;;;26.40;46.70;;;;;;4994933;28;20473;-65
2021/07/06 11:51:08;;;;;;;2.03;0.65;;;26.40;46.50;;;;;;5011004;28;20029;-62
2021/07/06 11:53:38;;;;;;;2.22;0.50;;;26.40;46.20;;;;;;5000471;28;20022;-61
2021/07/06 11:56:05;;;;;;;1.48;0.77;;;26.40;46.10;;;;;;5003547;28;20029;-58
2021/07/06 11:58:33;;;;;;;1.17;0.40;;;26.40;45.90;;;;;;4994562;28;20042;-63
2021/07/06 12:01:03;;;;;;;1.65;0.63;;;26.40;45.60;;;;;;5008204;28;20054;-61
2021/07/06 12:03:31;;;;;;;1.55;0.50;;;26.40;45.30;;;;;;5001901;28;20049;-60
2021/07/06 12:06:04;;;;;;;1.50;0.47;;;26.40;45.00;;;;;;5005730;28;20035;-61
2021/07/06 12:08:33;;;;;;;1.40;0.50;;;26.40;44.60;;;;;;5007762;28;20602;-58
2021/07/06 12:11:13;;;;;;;1.55;0.47;;;26.40;44.50;;;;;;5007728;28;20027;-58
2021/07/06 12:13:41;;;;;;;1.45;0.40;;;26.40;44.20;;;;;;5011589;28;20437;-60
2021/07/06 12:16:13;;;;;;;1.17;0.52;;;26.40;44.10;;;;;;5000755;28;20029;-62
2021/07/06 12:18:54;;;;;;;1.08;0.40;;;26.40;43.90;;;;;;5008994;28;20033;-60
2021/07/06 12:21:29;;;;;;;1.40;0.47;;;26.40;43.70;;;;;;5002915;28;20069;-61
2021/07/06 12:23:58;;;;;;;1.00;0.60;;;26.40;43.60;;;;;;5015307;28;20030;-60
2021/07/06 12:26:24;;;;;;;0.82;0.45;;;26.40;43.50;;;;;;5000514;28;20049;-59
2021/07/06 12:28:51;;;;;;;0.88;0.30;;;26.30;43.30;;;;;;5002377;28;20068;-60
2021/07/06 12:31:25;;;;;;;3.20;0.50;;;26.40;43.20;;;;;;5005424;28;20193;-60
2021/07/06 12:34:17;;;;;;;1.40;0.55;;;26.30;42.90;;;;;;5000506;28;20392;-60
2021/07/06 12:37:03;;;;;;;1.98;0.70;;;26.40;42.90;;;;;;5002841;28;20525;-60
2021/07/06 12:39:34;;;;;;;0.73;0.30;;;26.40;42.80;;;;;;5022770;28;20517;-63
2021/07/06 12:42:07;;;;;;;0.68;0.30;;;26.30;42.70;;;;;;5005599;28;20038;-61
2021/07/06 12:44:43;;;;;;;0.82;0.35;;;26.30;42.60;;;;;;5015941;28;20430;-57
2021/07/06 12:47:33;;;;;;;0.93;0.40;;;26.40;42.50;;;;;;5005962;28;20128;-61
2021/07/06 12:50:03;;;;;;;1.13;0.30;;;26.40;42.40;;;;;;5003023;28;20022;-61
2021/07/06 12:52:36;;;;;;;0.40;0.20;;;26.40;42.50;;;;;;5000025;28;20027;-62
2021/07/06 12:55:19;;;;;;;0.60;0.32;;;26.30;42.40;;;;;;5001539;28;20132;-60